sensor_id;sensor_type;location;lat;lon;timestamp;P1;durP1;ratioP1;P2;durP2;ratioP2
10582;SDS011;33679;51.218;6.786;2023-02-19T00:00:57;8.27;;;6.30;;
10582;SDS011;33679;51.218;6.786;2023-02-19T00:03:36;10.53;;;7.03;;
10582;SDS011;33679;51.218;6.786;2023-02-19T00:06:16;6.90;;;4.30;;
10582;SDS011;33679;51.218;6.786;2023-02-19T00:09:01;9.50;;;5.90;;
10582;SDS011;33679;51.218;6.786;2023-02-19T00:11:38;6.90;;;5.60;;
10582;SDS011;33679;51.218;6.786;2023-02-19T00:14:25;5.00;;;4.50;;
10582;SDS011;33679;51.218;6.786;2023-02-19T00:17:03;6.50;;;5.50;;
10582;SDS011;33679;51.218;6.786;2023-02-19T00:19:44;6.03;;;4.70;;
10582;SDS011;33679;51.218;6.786;2023-02-19T00:22:27;7.83;;;4.73;;
10582;SDS011;33679;51.218;6.786;2023-02-19T00:25:54;6.47;;;5.17;;
10582;SDS011;33679;51.218;6.786;2023-02-19T00:28:50;7.30;;;5.07;;
10582;SDS011;33679;51.218;6.786;2023-02-19T00:31:24;5.70;;;4.40;;
10582;SDS011;33679;51.218;6.786;2023-02-19T00:33:59;6.90;;;5.40;;
10582;SDS011;33679;51.218;6.786;2023-02-19T00:36:36;5.07;;;4.57;;
10582;SDS011;33679;51.218;6.786;2023-02-19T00:39:11;4.83;;;4.13;;
10582;SDS011;33679;51.218;6.786;2023-02-19T00:41:45;6.30;;;4.70;;
10582;SDS011;33679;51.218;6.786;2023-02-19T00:44:20;5.03;;;4.47;;
10582;SDS011;33679;51.218;6.786;2023-02-19T00:46:52;5.73;;;4.90;;
10582;SDS011;33679;51.218;6.786;2023-02-19T00:49:27;7.60;;;5.00;;
10582;SDS011;33679;51.218;6.786;2023-02-19T00:52:01;6.63;;;5.30;;
10582;SDS011;33679;51.218;6.786;2023-02-19T00:54:34;9.20;;;5.60;;
10582;SDS011;33679;51.218;6.786;2023-02-19T00:57:07;8.40;;;5.00;;
10582;SDS011;33679;51.218;6.786;2023-02-19T00:59:41;8.10;;;5.20;;
10582;SDS011;33679;51.218;6.786;2023-02-19T01:02:13;8.50;;;5.30;;
10582;SDS011;33679;51.218;6.786;2023-02-19T01:04:46;8.60;;;5.73;;
10582;SDS011;33679;51.218;6.786;2023-02-19T01:07:18;9.37;;;6.73;;
10582;SDS011;33679;51.218;6.786;2023-02-19T01:10:01;8.10;;;6.03;;
10582;SDS011;33679;51.218;6.786;2023-02-19T01:12:33;9.77;;;5.60;;
10582;SDS011;33679;51.218;6.786;2023-02-19T01:15:09;9.30;;;5.73;;
10582;SDS011;33679;51.218;6.786;2023-02-19T01:17:41;7.10;;;5.27;;
10582;SDS011;33679;51.218;6.786;2023-02-19T01:20:14;8.40;;;6.00;;
10582;SDS011;33679;51.218;6.786;2023-02-19T01:22:47;8.83;;;5.23;;
10582;SDS011;33679;51.218;6.786;2023-02-19T01:25:21;7.63;;;4.90;;
10582;SDS011;33679;51.218;6.786;2023-02-19T01:27:55;7.00;;;4.90;;
10582;SDS011;33679;51.218;6.786;2023-02-19T01:30:29;6.77;;;4.63;;
10582;SDS011;33679;51.218;6.786;2023-02-19T01:33:02;7.63;;;4.90;;
10582;SDS011;33679;51.218;6.786;2023-02-19T01:35:37;9.70;;;6.00;;
10582;SDS011;33679;51.218;6.786;2023-02-19T01:38:13;8.13;;;5.73;;
10582;SDS011;33679;51.218;6.786;2023-02-19T01:40:52;7.97;;;5.43;;
10582;SDS011;33679;51.218;6.786;2023-02-19T01:43:26;6.97;;;5.40;;
10582;SDS011;33679;51.218;6.786;2023-02-19T01:46:00;8.63;;;5.67;;
10582;SDS011;33679;51.218;6.786;2023-02-19T01:48:34;10.37;;;6.37;;
10582;SDS011;33679;51.218;6.786;2023-02-19T01:51:10;8.00;;;6.10;;
10582;SDS011;33679;51.218;6.786;2023-02-19T01:53:46;10.37;;;5.97;;
10582;SDS011;33679;51.218;6.786;2023-02-19T01:56:25;11.83;;;6.03;;
10582;SDS011;33679;51.218;6.786;2023-02-19T01:58:59;14.50;;;6.07;;
10582;SDS011;33679;51.218;6.786;2023-02-19T02:01:34;11.87;;;7.10;;
10582;SDS011;33679;51.218;6.786;2023-02-19T02:04:11;16.20;;;8.40;;
10582;SDS011;33679;51.218;6.786;2023-02-19T02:06:47;13.47;;;6.80;;
10582;SDS011;33679;51.218;6.786;2023-02-19T02:09:23;12.83;;;7.10;;
10582;SDS011;33679;51.218;6.786;2023-02-19T02:12:18;9.73;;;6.70;;
10582;SDS011;33679;51.218;6.786;2023-02-19T02:14:51;10.67;;;7.10;;
10582;SDS011;33679;51.218;6.786;2023-02-19T02:17:25;10.90;;;7.17;;
10582;SDS011;33679;51.218;6.786;2023-02-19T02:20:11;11.53;;;6.90;;
10582;SDS011;33679;51.218;6.786;2023-02-19T02:22:58;12.17;;;6.47;;
10582;SDS011;33679;51.218;6.786;2023-02-19T02:29:00;9.80;;;7.30;;
10582;SDS011;33679;51.218;6.786;2023-02-19T02:31:54;10.30;;;6.70;;
10582;SDS011;33679;51.218;6.786;2023-02-19T02:34:32;12.30;;;7.30;;
10582;SDS011;33679;51.218;6.786;2023-02-19T02:37:12;11.97;;;8.20;;
10582;SDS011;33679;51.218;6.786;2023-02-19T02:39:49;12.70;;;7.20;;
10582;SDS011;33679;51.218;6.786;2023-02-19T02:42:24;11.67;;;7.10;;
10582;SDS011;33679;51.218;6.786;2023-02-19T02:45:23;12.03;;;6.60;;
10582;SDS011;33679;51.218;6.786;2023-02-19T02:48:33;8.90;;;6.70;;
10582;SDS011;33679;51.218;6.786;2023-02-19T02:51:12;13.27;;;6.90;;
10582;SDS011;33679;51.218;6.786;2023-02-19T02:54:05;9.57;;;6.40;;
10582;SDS011;33679;51.218;6.786;2023-02-19T02:56:58;10.20;;;6.70;;
10582;SDS011;33679;51.218;6.786;2023-02-19T02:59:35;10.80;;;7.27;;
10582;SDS011;33679;51.218;6.786;2023-02-19T03:02:11;9.63;;;7.23;;
10582;SDS011;33679;51.218;6.786;2023-02-19T03:04:52;11.50;;;7.07;;
10582;SDS011;33679;51.218;6.786;2023-02-19T03:07:49;11.07;;;6.80;;
10582;SDS011;33679;51.218;6.786;2023-02-19T03:10:29;12.20;;;7.67;;
10582;SDS011;33679;51.218;6.786;2023-02-19T03:13:08;11.87;;;6.47;;
10582;SDS011;33679;51.218;6.786;2023-02-19T03:16:05;11.43;;;6.70;;
10582;SDS011;33679;51.218;6.786;2023-02-19T03:19:00;15.30;;;7.77;;
10582;SDS011;33679;51.218;6.786;2023-02-19T03:21:55;12.67;;;7.30;;
10582;SDS011;33679;51.218;6.786;2023-02-19T03:24:33;12.27;;;8.20;;
10582;SDS011;33679;51.218;6.786;2023-02-19T03:27:26;12.93;;;8.60;;
10582;SDS011;33679;51.218;6.786;2023-02-19T03:30:04;12.63;;;8.20;;
10582;SDS011;33679;51.218;6.786;2023-02-19T03:32:43;22.67;;;8.77;;
10582;SDS011;33679;51.218;6.786;2023-02-19T03:35:21;12.53;;;7.77;;
10582;SDS011;33679;51.218;6.786;2023-02-19T03:38:01;12.37;;;8.07;;
10582;SDS011;33679;51.218;6.786;2023-02-19T03:40:39;10.67;;;7.60;;
10582;SDS011;33679;51.218;6.786;2023-02-19T03:43:23;14.33;;;8.20;;
10582;SDS011;33679;51.218;6.786;2023-02-19T03:46:04;14.73;;;8.13;;
10582;SDS011;33679;51.218;6.786;2023-02-19T03:48:41;13.23;;;7.80;;
10582;SDS011;33679;51.218;6.786;2023-02-19T03:51:25;17.63;;;9.20;;
10582;SDS011;33679;51.218;6.786;2023-02-19T03:54:07;13.30;;;8.60;;
10582;SDS011;33679;51.218;6.786;2023-02-19T03:56:46;14.10;;;8.50;;
10582;SDS011;33679;51.218;6.786;2023-02-19T03:59:25;18.97;;;7.07;;
10582;SDS011;33679;51.218;6.786;2023-02-19T04:02:05;15.90;;;8.97;;
10582;SDS011;33679;51.218;6.786;2023-02-19T04:04:42;16.00;;;9.23;;
10582;SDS011;33679;51.218;6.786;2023-02-19T04:07:17;22.63;;;9.90;;
10582;SDS011;33679;51.218;6.786;2023-02-19T04:09:51;13.50;;;8.13;;
10582;SDS011;33679;51.218;6.786;2023-02-19T04:12:26;19.37;;;10.40;;
10582;SDS011;33679;51.218;6.786;2023-02-19T04:15:00;14.90;;;8.90;;
10582;SDS011;33679;51.218;6.786;2023-02-19T04:17:37;17.40;;;9.10;;
10582;SDS011;33679;51.218;6.786;2023-02-19T04:20:14;16.57;;;8.73;;
10582;SDS011;33679;51.218;6.786;2023-02-19T04:22:49;13.13;;;8.30;;
10582;SDS011;33679;51.218;6.786;2023-02-19T04:25:24;19.13;;;9.50;;
10582;SDS011;33679;51.218;6.786;2023-02-19T04:27:58;15.70;;;9.00;;
10582;SDS011;33679;51.218;6.786;2023-02-19T04:30:32;17.97;;;9.13;;
10582;SDS011;33679;51.218;6.786;2023-02-19T04:33:04;19.17;;;9.53;;
10582;SDS011;33679;51.218;6.786;2023-02-19T04:35:37;18.53;;;10.23;;
10582;SDS011;33679;51.218;6.786;2023-02-19T04:38:09;18.40;;;9.43;;
10582;SDS011;33679;51.218;6.786;2023-02-19T04:40:45;15.87;;;10.20;;
10582;SDS011;33679;51.218;6.786;2023-02-19T04:43:18;15.77;;;8.77;;
10582;SDS011;33679;51.218;6.786;2023-02-19T04:45:51;14.47;;;8.50;;
10582;SDS011;33679;51.218;6.786;2023-02-19T04:48:23;18.63;;;9.00;;
10582;SDS011;33679;51.218;6.786;2023-02-19T04:50:56;17.43;;;9.33;;
10582;SDS011;33679;51.218;6.786;2023-02-19T04:53:28;12.73;;;7.90;;
10582;SDS011;33679;51.218;6.786;2023-02-19T04:56:07;14.53;;;8.27;;
10582;SDS011;33679;51.218;6.786;2023-02-19T04:58:41;21.60;;;8.67;;
10582;SDS011;33679;51.218;6.786;2023-02-19T05:01:14;20.50;;;8.40;;
10582;SDS011;33679;51.218;6.786;2023-02-19T05:03:47;14.83;;;8.60;;
10582;SDS011;33679;51.218;6.786;2023-02-19T05:06:20;15.20;;;7.87;;
10582;SDS011;33679;51.218;6.786;2023-02-19T05:08:53;15.50;;;8.03;;
10582;SDS011;33679;51.218;6.786;2023-02-19T05:11:27;15.83;;;8.27;;
10582;SDS011;33679;51.218;6.786;2023-02-19T05:14:00;11.10;;;7.93;;
10582;SDS011;33679;51.218;6.786;2023-02-19T05:16:32;16.20;;;8.20;;
10582;SDS011;33679;51.218;6.786;2023-02-19T05:19:05;13.30;;;7.97;;
10582;SDS011;33679;51.218;6.786;2023-02-19T05:21:37;12.13;;;7.20;;
10582;SDS011;33679;51.218;6.786;2023-02-19T05:24:12;14.37;;;7.40;;
10582;SDS011;33679;51.218;6.786;2023-02-19T05:26:46;13.33;;;6.73;;
10582;SDS011;33679;51.218;6.786;2023-02-19T05:29:19;12.07;;;6.83;;
10582;SDS011;33679;51.218;6.786;2023-02-19T05:31:51;10.00;;;5.63;;
10582;SDS011;33679;51.218;6.786;2023-02-19T05:34:27;12.97;;;7.30;;
10582;SDS011;33679;51.218;6.786;2023-02-19T05:37:00;13.10;;;6.90;;
10582;SDS011;33679;51.218;6.786;2023-02-19T05:39:33;15.57;;;7.00;;
10582;SDS011;33679;51.218;6.786;2023-02-19T05:42:09;19.13;;;7.70;;
10582;SDS011;33679;51.218;6.786;2023-02-19T05:44:44;13.50;;;6.57;;
10582;SDS011;33679;51.218;6.786;2023-02-19T05:47:17;14.13;;;7.77;;
10582;SDS011;33679;51.218;6.786;2023-02-19T05:49:49;13.13;;;7.17;;
10582;SDS011;33679;51.218;6.786;2023-02-19T05:52:21;21.43;;;7.97;;
10582;SDS011;33679;51.218;6.786;2023-02-19T05:54:54;14.67;;;7.50;;
10582;SDS011;33679;51.218;6.786;2023-02-19T05:57:28;14.37;;;7.07;;
10582;SDS011;33679;51.218;6.786;2023-02-19T06:00:00;15.30;;;7.07;;
10582;SDS011;33679;51.218;6.786;2023-02-19T06:02:44;10.63;;;6.83;;
10582;SDS011;33679;51.218;6.786;2023-02-19T06:05:21;15.00;;;7.03;;
10582;SDS011;33679;51.218;6.786;2023-02-19T06:07:53;9.80;;;6.10;;
10582;SDS011;33679;51.218;6.786;2023-02-19T06:10:25;17.23;;;6.50;;
10582;SDS011;33679;51.218;6.786;2023-02-19T06:12:59;15.27;;;6.20;;
10582;SDS011;33679;51.218;6.786;2023-02-19T06:15:32;11.10;;;6.37;;
10582;SDS011;33679;51.218;6.786;2023-02-19T06:18:06;13.03;;;6.70;;
10582;SDS011;33679;51.218;6.786;2023-02-19T06:20:39;10.93;;;6.40;;
10582;SDS011;33679;51.218;6.786;2023-02-19T06:23:11;14.63;;;6.30;;
10582;SDS011;33679;51.218;6.786;2023-02-19T06:25:43;11.73;;;6.60;;
10582;SDS011;33679;51.218;6.786;2023-02-19T06:28:17;12.30;;;6.60;;
10582;SDS011;33679;51.218;6.786;2023-02-19T06:30:50;14.10;;;6.80;;
10582;SDS011;33679;51.218;6.786;2023-02-19T06:33:22;18.03;;;8.17;;
10582;SDS011;33679;51.218;6.786;2023-02-19T06:35:56;13.67;;;5.80;;
10582;SDS011;33679;51.218;6.786;2023-02-19T06:38:30;11.13;;;7.73;;
10582;SDS011;33679;51.218;6.786;2023-02-19T06:41:03;10.97;;;6.20;;
10582;SDS011;33679;51.218;6.786;2023-02-19T06:43:38;14.10;;;6.47;;
10582;SDS011;33679;51.218;6.786;2023-02-19T06:46:11;12.20;;;6.53;;
10582;SDS011;33679;51.218;6.786;2023-02-19T06:48:44;13.77;;;7.07;;
10582;SDS011;33679;51.218;6.786;2023-02-19T06:51:17;14.10;;;6.40;;
10582;SDS011;33679;51.218;6.786;2023-02-19T06:53:53;10.13;;;5.20;;
10582;SDS011;33679;51.218;6.786;2023-02-19T06:56:26;12.67;;;5.63;;
10582;SDS011;33679;51.218;6.786;2023-02-19T06:59:02;14.00;;;5.80;;
10582;SDS011;33679;51.218;6.786;2023-02-19T07:01:37;11.63;;;6.13;;
10582;SDS011;33679;51.218;6.786;2023-02-19T07:04:11;14.47;;;5.97;;
10582;SDS011;33679;51.218;6.786;2023-02-19T07:06:43;8.93;;;5.50;;
10582;SDS011;33679;51.218;6.786;2023-02-19T07:09:16;10.93;;;4.77;;
10582;SDS011;33679;51.218;6.786;2023-02-19T07:11:50;13.20;;;6.33;;
10582;SDS011;33679;51.218;6.786;2023-02-19T07:14:31;11.90;;;6.17;;
10582;SDS011;33679;51.218;6.786;2023-02-19T07:17:08;12.70;;;6.00;;
10582;SDS011;33679;51.218;6.786;2023-02-19T07:19:52;9.70;;;5.83;;
10582;SDS011;33679;51.218;6.786;2023-02-19T07:22:34;10.13;;;5.30;;
10582;SDS011;33679;51.218;6.786;2023-02-19T07:25:13;11.83;;;5.17;;
10582;SDS011;33679;51.218;6.786;2023-02-19T07:27:50;9.70;;;6.27;;
10582;SDS011;33679;51.218;6.786;2023-02-19T07:30:24;6.63;;;4.77;;
10582;SDS011;33679;51.218;6.786;2023-02-19T07:32:57;10.67;;;5.00;;
10582;SDS011;33679;51.218;6.786;2023-02-19T07:35:35;10.30;;;3.90;;
10582;SDS011;33679;51.218;6.786;2023-02-19T07:38:16;7.93;;;4.17;;
10582;SDS011;33679;51.218;6.786;2023-02-19T07:40:58;10.30;;;4.70;;
10582;SDS011;33679;51.218;6.786;2023-02-19T07:46:46;8.37;;;4.10;;
10582;SDS011;33679;51.218;6.786;2023-02-19T07:49:19;8.23;;;4.10;;
10582;SDS011;33679;51.218;6.786;2023-02-19T07:51:52;7.10;;;3.80;;
10582;SDS011;33679;51.218;6.786;2023-02-19T07:54:46;15.73;;;5.13;;
10582;SDS011;33679;51.218;6.786;2023-02-19T07:57:25;8.97;;;4.43;;
10582;SDS011;33679;51.218;6.786;2023-02-19T08:00:11;9.20;;;3.73;;
10582;SDS011;33679;51.218;6.786;2023-02-19T08:02:46;6.87;;;4.27;;
10582;SDS011;33679;51.218;6.786;2023-02-19T08:05:37;10.90;;;4.00;;
10582;SDS011;33679;51.218;6.786;2023-02-19T08:08:12;7.70;;;4.33;;
10582;SDS011;33679;51.218;6.786;2023-02-19T08:10:52;12.70;;;5.23;;
10582;SDS011;33679;51.218;6.786;2023-02-19T08:13:50;11.63;;;4.93;;
10582;SDS011;33679;51.218;6.786;2023-02-19T08:16:31;8.77;;;4.37;;
10582;SDS011;33679;51.218;6.786;2023-02-19T08:19:08;10.37;;;5.10;;
10582;SDS011;33679;51.218;6.786;2023-02-19T08:21:44;10.70;;;4.43;;
10582;SDS011;33679;51.218;6.786;2023-02-19T08:24:28;13.73;;;6.40;;
10582;SDS011;33679;51.218;6.786;2023-02-19T08:27:05;7.60;;;4.27;;
10582;SDS011;33679;51.218;6.786;2023-02-19T08:29:42;13.37;;;5.37;;
10582;SDS011;33679;51.218;6.786;2023-02-19T08:32:17;8.53;;;5.30;;
10582;SDS011;33679;51.218;6.786;2023-02-19T08:34:52;16.50;;;8.60;;
10582;SDS011;33679;51.218;6.786;2023-02-19T08:37:28;11.20;;;5.50;;
10582;SDS011;33679;51.218;6.786;2023-02-19T08:40:04;13.10;;;7.70;;
10582;SDS011;33679;51.218;6.786;2023-02-19T08:42:45;12.77;;;5.80;;
10582;SDS011;33679;51.218;6.786;2023-02-19T08:45:17;11.73;;;6.13;;
10582;SDS011;33679;51.218;6.786;2023-02-19T08:47:58;9.90;;;5.40;;
10582;SDS011;33679;51.218;6.786;2023-02-19T08:54:09;11.93;;;4.80;;
10582;SDS011;33679;51.218;6.786;2023-02-19T08:56:50;8.07;;;4.50;;
10582;SDS011;33679;51.218;6.786;2023-02-19T08:59:24;10.63;;;6.53;;
10582;SDS011;33679;51.218;6.786;2023-02-19T09:01:59;8.53;;;5.07;;
10582;SDS011;33679;51.218;6.786;2023-02-19T09:04:35;10.60;;;4.53;;
10582;SDS011;33679;51.218;6.786;2023-02-19T09:07:10;13.10;;;4.83;;
10582;SDS011;33679;51.218;6.786;2023-02-19T09:09:46;9.60;;;4.50;;
10582;SDS011;33679;51.218;6.786;2023-02-19T09:12:24;11.93;;;4.90;;
10582;SDS011;33679;51.218;6.786;2023-02-19T09:14:59;12.13;;;5.80;;
10582;SDS011;33679;51.218;6.786;2023-02-19T09:17:34;8.60;;;4.80;;
10582;SDS011;33679;51.218;6.786;2023-02-19T09:20:07;7.00;;;4.67;;
10582;SDS011;33679;51.218;6.786;2023-02-19T09:22:41;11.57;;;4.80;;
10582;SDS011;33679;51.218;6.786;2023-02-19T09:25:22;11.97;;;4.60;;
10582;SDS011;33679;51.218;6.786;2023-02-19T09:28:06;11.90;;;4.90;;
10582;SDS011;33679;51.218;6.786;2023-02-19T09:30:38;7.07;;;4.27;;
10582;SDS011;33679;51.218;6.786;2023-02-19T09:33:11;12.77;;;4.90;;
10582;SDS011;33679;51.218;6.786;2023-02-19T09:35:43;8.23;;;4.80;;
10582;SDS011;33679;51.218;6.786;2023-02-19T09:38:22;9.40;;;4.53;;
10582;SDS011;33679;51.218;6.786;2023-02-19T09:40:58;8.87;;;4.30;;
10582;SDS011;33679;51.218;6.786;2023-02-19T09:43:44;8.03;;;4.63;;
10582;SDS011;33679;51.218;6.786;2023-02-19T09:46:27;9.80;;;4.27;;
10582;SDS011;33679;51.218;6.786;2023-02-19T09:49:06;9.77;;;5.40;;
10582;SDS011;33679;51.218;6.786;2023-02-19T09:51:47;7.80;;;4.30;;
10582;SDS011;33679;51.218;6.786;2023-02-19T09:54:26;8.10;;;3.80;;
10582;SDS011;33679;51.218;6.786;2023-02-19T09:57:01;16.50;;;4.20;;
10582;SDS011;33679;51.218;6.786;2023-02-19T09:59:36;8.20;;;3.57;;
10582;SDS011;33679;51.218;6.786;2023-02-19T10:02:13;6.20;;;3.57;;
10582;SDS011;33679;51.218;6.786;2023-02-19T10:04:59;6.90;;;3.30;;
10582;SDS011;33679;51.218;6.786;2023-02-19T10:07:50;5.60;;;3.50;;
10582;SDS011;33679;51.218;6.786;2023-02-19T10:10:35;7.10;;;3.00;;
10582;SDS011;33679;51.218;6.786;2023-02-19T10:13:10;6.23;;;3.60;;
10582;SDS011;33679;51.218;6.786;2023-02-19T10:15:49;8.30;;;3.40;;
10582;SDS011;33679;51.218;6.786;2023-02-19T10:18:24;5.20;;;2.60;;
10582;SDS011;33679;51.218;6.786;2023-02-19T10:21:15;4.70;;;3.07;;
10582;SDS011;33679;51.218;6.786;2023-02-19T10:24:23;4.50;;;3.20;;
10582;SDS011;33679;51.218;6.786;2023-02-19T10:27:14;6.40;;;3.70;;
10582;SDS011;33679;51.218;6.786;2023-02-19T10:30:01;6.33;;;3.50;;
10582;SDS011;33679;51.218;6.786;2023-02-19T10:32:39;9.43;;;3.20;;
10582;SDS011;33679;51.218;6.786;2023-02-19T10:35:36;5.03;;;2.97;;
10582;SDS011;33679;51.218;6.786;2023-02-19T10:38:24;5.00;;;2.70;;
10582;SDS011;33679;51.218;6.786;2023-02-19T10:41:03;4.43;;;3.00;;
10582;SDS011;33679;51.218;6.786;2023-02-19T10:44:26;4.33;;;2.70;;
10582;SDS011;33679;51.218;6.786;2023-02-19T10:47:06;5.63;;;3.23;;
10582;SDS011;33679;51.218;6.786;2023-02-19T10:49:48;6.00;;;3.50;;
10582;SDS011;33679;51.218;6.786;2023-02-19T10:52:29;22.67;;;11.00;;
10582;SDS011;33679;51.218;6.786;2023-02-19T10:55:15;4.93;;;3.50;;
10582;SDS011;33679;51.218;6.786;2023-02-19T10:57:57;4.83;;;3.17;;
10582;SDS011;33679;51.218;6.786;2023-02-19T11:01:09;6.07;;;3.57;;
10582;SDS011;33679;51.218;6.786;2023-02-19T11:03:45;7.33;;;3.97;;
10582;SDS011;33679;51.218;6.786;2023-02-19T11:06:18;5.10;;;2.80;;
10582;SDS011;33679;51.218;6.786;2023-02-19T11:09:02;6.13;;;3.50;;
10582;SDS011;33679;51.218;6.786;2023-02-19T11:11:36;5.57;;;3.97;;
10582;SDS011;33679;51.218;6.786;2023-02-19T11:14:13;10.00;;;3.63;;
10582;SDS011;33679;51.218;6.786;2023-02-19T11:16:50;6.87;;;4.00;;
10582;SDS011;33679;51.218;6.786;2023-02-19T11:19:30;5.10;;;3.50;;
10582;SDS011;33679;51.218;6.786;2023-02-19T11:22:18;3.40;;;2.57;;
10582;SDS011;33679;51.218;6.786;2023-02-19T11:24:51;5.33;;;3.23;;
10582;SDS011;33679;51.218;6.786;2023-02-19T11:27:27;3.37;;;2.50;;
10582;SDS011;33679;51.218;6.786;2023-02-19T11:33:19;4.70;;;2.73;;
10582;SDS011;33679;51.218;6.786;2023-02-19T11:39:13;4.00;;;2.73;;
10582;SDS011;33679;51.218;6.786;2023-02-19T11:41:59;4.57;;;2.73;;
10582;SDS011;33679;51.218;6.786;2023-02-19T11:44:49;6.83;;;5.03;;
10582;SDS011;33679;51.218;6.786;2023-02-19T11:47:52;6.63;;;4.27;;
10582;SDS011;33679;51.218;6.786;2023-02-19T11:50:51;5.60;;;3.27;;
10582;SDS011;33679;51.218;6.786;2023-02-19T11:53:29;4.97;;;3.20;;
10582;SDS011;33679;51.218;6.786;2023-02-19T11:56:09;8.47;;;5.20;;
10582;SDS011;33679;51.218;6.786;2023-02-19T11:58:52;5.20;;;3.83;;
10582;SDS011;33679;51.218;6.786;2023-02-19T12:05:15;7.40;;;4.67;;
10582;SDS011;33679;51.218;6.786;2023-02-19T12:08:01;6.40;;;4.30;;
10582;SDS011;33679;51.218;6.786;2023-02-19T12:11:19;7.00;;;4.40;;
10582;SDS011;33679;51.218;6.786;2023-02-19T12:14:13;7.67;;;5.20;;
10582;SDS011;33679;51.218;6.786;2023-02-19T12:16:58;6.03;;;4.07;;
10582;SDS011;33679;51.218;6.786;2023-02-19T12:19:38;7.00;;;4.80;;
10582;SDS011;33679;51.218;6.786;2023-02-19T12:22:27;4.70;;;4.07;;
10582;SDS011;33679;51.218;6.786;2023-02-19T12:25:11;19.40;;;10.57;;
10582;SDS011;33679;51.218;6.786;2023-02-19T12:27:59;5.27;;;4.40;;
10582;SDS011;33679;51.218;6.786;2023-02-19T12:30:52;5.63;;;4.17;;
10582;SDS011;33679;51.218;6.786;2023-02-19T12:36:57;6.87;;;4.73;;
10582;SDS011;33679;51.218;6.786;2023-02-19T12:39:43;6.90;;;4.67;;
10582;SDS011;33679;51.218;6.786;2023-02-19T12:42:30;5.43;;;4.30;;
10582;SDS011;33679;51.218;6.786;2023-02-19T12:45:21;9.83;;;5.10;;
10582;SDS011;33679;51.218;6.786;2023-02-19T12:48:02;6.77;;;4.47;;
10582;SDS011;33679;51.218;6.786;2023-02-19T12:50:44;6.53;;;4.40;;
10582;SDS011;33679;51.218;6.786;2023-02-19T12:53:23;6.10;;;4.20;;
10582;SDS011;33679;51.218;6.786;2023-02-19T12:56:05;6.30;;;3.70;;
10582;SDS011;33679;51.218;6.786;2023-02-19T12:58:53;5.63;;;5.03;;
10582;SDS011;33679;51.218;6.786;2023-02-19T13:01:32;10.80;;;4.30;;
10582;SDS011;33679;51.218;6.786;2023-02-19T13:04:13;9.17;;;5.33;;
10582;SDS011;33679;51.218;6.786;2023-02-19T13:07:12;8.63;;;4.97;;
10582;SDS011;33679;51.218;6.786;2023-02-19T13:09:48;8.70;;;5.00;;
10582;SDS011;33679;51.218;6.786;2023-02-19T13:12:24;7.57;;;4.80;;
10582;SDS011;33679;51.218;6.786;2023-02-19T13:15:02;8.73;;;5.57;;
10582;SDS011;33679;51.218;6.786;2023-02-19T13:17:36;15.50;;;7.17;;
10582;SDS011;33679;51.218;6.786;2023-02-19T13:20:16;12.27;;;6.60;;
10582;SDS011;33679;51.218;6.786;2023-02-19T13:22:57;6.50;;;4.60;;
10582;SDS011;33679;51.218;6.786;2023-02-19T13:25:57;9.97;;;5.30;;
10582;SDS011;33679;51.218;6.786;2023-02-19T13:28:48;10.80;;;5.20;;
10582;SDS011;33679;51.218;6.786;2023-02-19T13:31:42;8.80;;;4.83;;
10582;SDS011;33679;51.218;6.786;2023-02-19T13:34:34;6.73;;;5.23;;
10582;SDS011;33679;51.218;6.786;2023-02-19T13:37:18;9.37;;;5.43;;
10582;SDS011;33679;51.218;6.786;2023-02-19T13:39:55;8.67;;;5.70;;
10582;SDS011;33679;51.218;6.786;2023-02-19T13:42:33;8.80;;;5.60;;
10582;SDS011;33679;51.218;6.786;2023-02-19T13:45:19;9.90;;;5.90;;
10582;SDS011;33679;51.218;6.786;2023-02-19T13:48:03;8.57;;;4.97;;
10582;SDS011;33679;51.218;6.786;2023-02-19T13:54:12;7.13;;;5.33;;
10582;SDS011;33679;51.218;6.786;2023-02-19T14:00:21;9.30;;;5.70;;
10582;SDS011;33679;51.218;6.786;2023-02-19T14:03:27;6.27;;;4.50;;
10582;SDS011;33679;51.218;6.786;2023-02-19T14:06:04;6.50;;;5.00;;
10582;SDS011;33679;51.218;6.786;2023-02-19T14:08:46;6.67;;;5.10;;
10582;SDS011;33679;51.218;6.786;2023-02-19T14:21:21;4.10;;;3.40;;
10582;SDS011;33679;51.218;6.786;2023-02-19T14:24:04;6.47;;;3.30;;
10582;SDS011;33679;51.218;6.786;2023-02-19T14:26:43;7.97;;;3.80;;
10582;SDS011;33679;51.218;6.786;2023-02-19T14:29:18;6.30;;;3.30;;
10582;SDS011;33679;51.218;6.786;2023-02-19T14:32:09;3.33;;;2.63;;
10582;SDS011;33679;51.218;6.786;2023-02-19T14:35:20;5.80;;;2.90;;
10582;SDS011;33679;51.218;6.786;2023-02-19T14:38:20;5.87;;;3.00;;
10582;SDS011;33679;51.218;6.786;2023-02-19T14:41:06;7.33;;;2.90;;
10582;SDS011;33679;51.218;6.786;2023-02-19T14:43:48;3.70;;;2.60;;
10582;SDS011;33679;51.218;6.786;2023-02-19T14:46:27;6.73;;;3.40;;
10582;SDS011;33679;51.218;6.786;2023-02-19T14:49:03;3.40;;;2.70;;
10582;SDS011;33679;51.218;6.786;2023-02-19T14:51:47;4.50;;;3.10;;
10582;SDS011;33679;51.218;6.786;2023-02-19T14:54:32;3.33;;;2.80;;
10582;SDS011;33679;51.218;6.786;2023-02-19T14:57:14;7.80;;;4.53;;
10582;SDS011;33679;51.218;6.786;2023-02-19T15:00:36;6.13;;;3.77;;
10582;SDS011;33679;51.218;6.786;2023-02-19T15:03:26;5.47;;;3.43;;
10582;SDS011;33679;51.218;6.786;2023-02-19T15:06:05;4.67;;;2.77;;
10582;SDS011;33679;51.218;6.786;2023-02-19T15:08:51;4.20;;;3.13;;
10582;SDS011;33679;51.218;6.786;2023-02-19T15:11:33;4.63;;;2.87;;
10582;SDS011;33679;51.218;6.786;2023-02-19T15:14:12;4.70;;;3.00;;
10582;SDS011;33679;51.218;6.786;2023-02-19T15:17:09;3.77;;;3.00;;
10582;SDS011;33679;51.218;6.786;2023-02-19T15:20:31;6.27;;;3.23;;
10582;SDS011;33679;51.218;6.786;2023-02-19T15:23:19;5.30;;;3.00;;
10582;SDS011;33679;51.218;6.786;2023-02-19T15:28:58;5.97;;;3.13;;
10582;SDS011;33679;51.218;6.786;2023-02-19T15:31:32;4.97;;;3.30;;
10582;SDS011;33679;51.218;6.786;2023-02-19T15:34:13;6.63;;;3.47;;
10582;SDS011;33679;51.218;6.786;2023-02-19T15:36:51;6.87;;;4.17;;
10582;SDS011;33679;51.218;6.786;2023-02-19T15:39:52;5.93;;;3.60;;
10582;SDS011;33679;51.218;6.786;2023-02-19T15:42:30;7.10;;;4.57;;
10582;SDS011;33679;51.218;6.786;2023-02-19T15:45:39;10.07;;;6.87;;
10582;SDS011;33679;51.218;6.786;2023-02-19T15:48:25;11.10;;;6.50;;
10582;SDS011;33679;51.218;6.786;2023-02-19T15:54:44;7.60;;;5.13;;
10582;SDS011;33679;51.218;6.786;2023-02-19T15:57:44;8.53;;;4.50;;
10582;SDS011;33679;51.218;6.786;2023-02-19T16:00:37;6.77;;;4.80;;
10582;SDS011;33679;51.218;6.786;2023-02-19T16:03:23;7.47;;;5.30;;
10582;SDS011;33679;51.218;6.786;2023-02-19T16:06:16;15.70;;;8.00;;
10582;SDS011;33679;51.218;6.786;2023-02-19T16:09:18;16.40;;;9.03;;
10582;SDS011;33679;51.218;6.786;2023-02-19T16:12:02;10.50;;;6.33;;
10582;SDS011;33679;51.218;6.786;2023-02-19T16:14:52;8.90;;;5.50;;
10582;SDS011;33679;51.218;6.786;2023-02-19T16:17:33;13.47;;;7.13;;
10582;SDS011;33679;51.218;6.786;2023-02-19T16:20:15;9.80;;;5.50;;
10582;SDS011;33679;51.218;6.786;2023-02-19T16:22:57;19.50;;;10.10;;
10582;SDS011;33679;51.218;6.786;2023-02-19T16:25:35;5.90;;;4.80;;
10582;SDS011;33679;51.218;6.786;2023-02-19T16:28:30;11.27;;;5.10;;
10582;SDS011;33679;51.218;6.786;2023-02-19T16:32:16;5.60;;;3.90;;
10582;SDS011;33679;51.218;6.786;2023-02-19T16:38:58;3.10;;;2.37;;
10582;SDS011;33679;51.218;6.786;2023-02-19T16:44:53;2.47;;;1.93;;
10582;SDS011;33679;51.218;6.786;2023-02-19T17:04:16;1.67;;;1.37;;
10582;SDS011;33679;51.218;6.786;2023-02-19T17:12:29;1.73;;;1.50;;
10582;SDS011;33679;51.218;6.786;2023-02-19T17:15:06;3.10;;;1.77;;
10582;SDS011;33679;51.218;6.786;2023-02-19T17:17:54;3.63;;;2.20;;